Time,TemperatureF,DewpointF,PressureIn,WindDirection,WindDirectionDegrees,WindSpeedMPH,WindSpeedGustMPH,Humidity,HourlyPrecipIn,Conditions,Clouds,dailyrainin,SoftwareType,DateUTC
2013-01-06 14:02:00,31.0,14.0,-100.00,NE,36,3.0,8.0,49,-99.99,,,-99.99,,2013-01-06 21:02:00,
2013-01-06 14:12:00,33.0,14.0,-100.00,WSW,246,1.0,2.0,46,-99.99,,,-99.99,,2013-01-06 21:12:00,
2013-01-06 14:22:00,33.0,14.0,-100.00,WSW,246,1.0,2.0,46,-99.99,,,-99.99,,2013-01-06 21:22:00,
2013-01-06 14:33:00,33.0,14.0,-100.00,WSW,246,1.0,2.0,46,-99.99,,,-99.99,,2013-01-06 21:33:00,
2013-01-06 14:42:00,36.0,13.0,-100.00,West,261,4.0,7.0,39,-99.99,,,-99.99,,2013-01-06 21:42:00,
2013-01-06 14:53:00,36.0,13.0,-100.00,West,261,4.0,7.0,39,-99.99,,,-99.99,,2013-01-06 21:53:00,
2013-01-06 15:02:00,37.0,11.0,-100.00,WSW,241,2.0,5.0,33,-99.99,,,-99.99,,2013-01-06 22:02:00,
2013-01-06 15:12:00,34.0,14.0,-100.00,ENE,74,2.0,6.0,43,-99.99,,,-99.99,,2013-01-06 22:12:00,
2013-01-06 15:22:00,34.0,14.0,-100.00,ENE,74,2.0,6.0,43,-99.99,,,-99.99,,2013-01-06 22:22:00,
2013-01-06 15:32:00,34.0,14.0,-100.00,ENE,74,2.0,6.0,43,-99.99,,,-99.99,,2013-01-06 22:32:00,
2013-01-06 15:43:00,35.0,16.0,-100.00,WSW,241,1.0,2.0,44,-99.99,,,-99.99,,2013-01-06 22:43:00,
2013-01-06 15:52:00,35.0,16.0,-100.00,WSW,241,1.0,2.0,44,-99.99,,,-99.99,,2013-01-06 22:52:00,
2013-01-06 16:02:00,36.0,14.0,-100.00,SE,132,1.0,2.0,40,-99.99,,,-99.99,,2013-01-06 23:02:00,
2013-01-06 16:12:00,37.0,14.0,-100.00,SSE,164,1.0,3.0,38,-99.99,,,-99.99,,2013-01-06 23:12:00,
2013-01-06 16:22:00,37.0,14.0,-100.00,SSE,164,1.0,3.0,38,-99.99,,,-99.99,,2013-01-06 23:22:00,
2013-01-06 16:32:00,37.0,14.0,-100.00,SSE,164,1.0,3.0,38,-99.99,,,-99.99,,2013-01-06 23:32:00,
2013-01-06 16:42:00,35.0,15.0,-100.00,SSW,213,1.0,4.0,42,-99.99,,,-99.99,,2013-01-06 23:42:00,
2013-01-06 16:53:00,35.0,15.0,-100.00,SSW,213,1.0,4.0,42,-99.99,,,-99.99,,2013-01-06 23:53:00,
2013-01-06 17:02:00,34.0,14.0,-100.00,SW,220,2.0,4.0,43,-99.99,,,-99.99,,2013-01-07 00:02:00,
2013-01-06 17:12:00,32.0,15.0,-100.00,SW,228,2.0,4.0,47,-99.99,,,-99.99,,2013-01-07 00:12:00,
2013-01-06 17:22:00,32.0,15.0,-100.00,SW,228,2.0,4.0,47,-99.99,,,-99.99,,2013-01-07 00:22:00,
2013-01-06 17:32:00,32.0,15.0,-100.00,SW,228,2.0,4.0,47,-99.99,,,-99.99,,2013-01-07 00:32:00,
2013-01-06 17:42:00,29.0,13.0,-100.00,SW,235,3.0,6.0,50,-99.99,,,-99.99,,2013-01-07 00:42:00,
2013-01-06 17:53:00,29.0,13.0,-100.00,SW,235,3.0,6.0,50,-99.99,,,-99.99,,2013-01-07 00:53:00,
2013-01-06 18:02:00,27.0,14.0,-100.00,WSW,238,3.0,5.0,55,-99.99,,,-99.99,,2013-01-07 01:02:00,
2013-01-06 18:12:00,26.0,14.0,-100.00,SW,236,4.0,8.0,59,-99.99,,,-99.99,,2013-01-07 01:12:00,
2013-01-06 18:22:00,26.0,14.0,-100.00,SW,236,4.0,8.0,59,-99.99,,,-99.99,,2013-01-07 01:22:00,
2013-01-06 18:32:00,26.0,14.0,-100.00,SW,236,4.0,8.0,59,-99.99,,,-99.99,,2013-01-07 01:32:00,
2013-01-06 18:42:00,24.0,13.0,-100.00,SW,234,4.0,8.0,62,-99.99,,,-99.99,,2013-01-07 01:42:00,
2013-01-06 18:53:00,24.0,13.0,-100.00,SW,234,4.0,8.0,62,-99.99,,,-99.99,,2013-01-07 01:53:00,
2013-01-06 19:02:00,23.0,12.0,-100.00,WSW,241,5.0,10.0,62,-99.99,,,-99.99,,2013-01-07 02:02:00,
2013-01-06 19:12:00,23.0,12.0,-100.00,WSW,246,5.0,9.0,62,-99.99,,,-99.99,,2013-01-07 02:12:00,
2013-01-06 19:22:00,23.0,12.0,-100.00,WSW,246,5.0,9.0,62,-99.99,,,-99.99,,2013-01-07 02:22:00,
2013-01-06 19:32:00,23.0,12.0,-100.00,WSW,246,5.0,9.0,62,-99.99,,,-99.99,,2013-01-07 02:32:00,
2013-01-06 19:42:00,23.0,12.0,-100.00,WSW,252,2.0,4.0,61,-99.99,,,-99.99,,2013-01-07 02:42:00,
2013-01-06 19:53:00,23.0,12.0,-100.00,WSW,252,2.0,4.0,61,-99.99,,,-99.99,,2013-01-07 02:53:00,
2013-01-06 20:02:00,23.0,12.0,-100.00,WSW,250,2.0,3.0,63,-99.99,,,-99.99,,2013-01-07 03:02:00,
2013-01-06 20:12:00,21.0,11.0,-100.00,SW,231,2.0,4.0,65,-99.99,,,-99.99,,2013-01-07 03:12:00,
2013-01-06 20:22:00,21.0,11.0,-100.00,SW,231,2.0,4.0,65,-99.99,,,-99.99,,2013-01-07 03:22:00,
2013-01-06 20:32:00,21.0,11.0,-100.00,SW,231,2.0,4.0,65,-99.99,,,-99.99,,2013-01-07 03:32:00,
2013-01-06 20:42:00,18.0,10.0,-100.00,SW,232,3.0,5.0,69,-99.99,,,-99.99,,2013-01-07 03:42:00,
2013-01-06 20:53:00,18.0,10.0,-100.00,SW,232,3.0,5.0,69,-99.99,,,-99.99,,2013-01-07 03:53:00,
2013-01-06 21:02:00,17.0,9.0,-100.00,WSW,256,1.0,3.0,69,-99.99,,,-99.99,,2013-01-07 04:02:00,
2013-01-06 21:12:00,16.0,8.0,-100.00,WSW,250,3.0,5.0,70,-99.99,,,-99.99,,2013-01-07 04:12:00,
2013-01-06 21:22:00,16.0,8.0,-100.00,WSW,250,3.0,5.0,70,-99.99,,,-99.99,,2013-01-07 04:22:00,
2013-01-06 21:32:00,16.0,8.0,-100.00,WSW,250,3.0,5.0,70,-99.99,,,-99.99,,2013-01-07 04:32:00,
2013-01-06 21:42:00,14.0,7.0,-100.00,WSW,239,3.0,4.0,71,-99.99,,,-99.99,,2013-01-07 04:42:00,
2013-01-06 21:52:00,14.0,7.0,-100.00,WSW,239,3.0,4.0,71,-99.99,,,-99.99,,2013-01-07 04:52:00,
2013-01-06 22:02:00,14.0,7.0,-100.00,WSW,250,4.0,6.0,72,-99.99,,,-99.99,,2013-01-07 05:02:00,
2013-01-06 22:12:00,14.0,6.0,-100.00,SW,234,1.0,4.0,72,-99.99,,,-99.99,,2013-01-07 05:12:00,
2013-01-06 22:22:00,14.0,6.0,-100.00,SW,234,1.0,4.0,72,-99.99,,,-99.99,,2013-01-07 05:22:00,
2013-01-06 22:32:00,14.0,6.0,-100.00,SW,234,1.0,4.0,72,-99.99,,,-99.99,,2013-01-07 05:32:00,
2013-01-06 22:42:00,13.0,6.0,-100.00,WSW,250,4.0,7.0,74,-99.99,,,-99.99,,2013-01-07 05:42:00,
2013-01-06 22:53:00,13.0,6.0,-100.00,WSW,250,4.0,7.0,74,-99.99,,,-99.99,,2013-01-07 05:53:00,
2013-01-06 23:02:00,14.0,7.0,-100.00,WSW,249,1.0,3.0,73,-99.99,,,-99.99,,2013-01-07 06:02:00,
2013-01-06 23:12:00,12.0,6.0,-100.00,SW,226,3.0,5.0,73,-99.99,,,-99.99,,2013-01-07 06:12:00,
2013-01-06 23:22:00,12.0,6.0,-100.00,SW,226,3.0,5.0,73,-99.99,,,-99.99,,2013-01-07 06:22:00,
2013-01-06 23:32:00,12.0,6.0,-100.00,SW,226,3.0,5.0,73,-99.99,,,-99.99,,2013-01-07 06:32:00,
2013-01-06 23:42:00,10.0,4.0,-100.00,WSW,239,3.0,5.0,75,-99.99,,,-99.99,,2013-01-07 06:42:00,
2013-01-06 23:52:00,10.0,4.0,-100.00,WSW,239,3.0,5.0,75,-99.99,,,-99.99,,2013-01-07 06:52:00,